sensor_id;sensor_type;location;lat;lon;timestamp;P1;durP1;ratioP1;P2;durP2;ratioP2
77362;SDS011;66428;47.322;9.432;2023-05-07T00:01:03;3.40;;;2.20;;
77362;SDS011;66428;47.322;9.432;2023-05-07T00:03:32;3.40;;;2.35;;
77362;SDS011;66428;47.322;9.432;2023-05-07T00:06:01;3.92;;;3.10;;
77362;SDS011;66428;47.322;9.432;2023-05-07T00:08:32;3.45;;;3.00;;
77362;SDS011;66428;47.322;9.432;2023-05-07T00:10:58;2.92;;;2.63;;
77362;SDS011;66428;47.322;9.432;2023-05-07T00:13:27;3.22;;;1.85;;
77362;SDS011;66428;47.322;9.432;2023-05-07T00:15:59;2.85;;;1.90;;
77362;SDS011;66428;47.322;9.432;2023-05-07T00:18:28;2.67;;;1.88;;
77362;SDS011;66428;47.322;9.432;2023-05-07T00:20:54;4.05;;;2.08;;
77362;SDS011;66428;47.322;9.432;2023-05-07T00:23:21;3.17;;;2.05;;
77362;SDS011;66428;47.322;9.432;2023-05-07T00:25:50;2.72;;;1.80;;
77362;SDS011;66428;47.322;9.432;2023-05-07T00:28:19;2.63;;;1.70;;
77362;SDS011;66428;47.322;9.432;2023-05-07T00:30:48;4.10;;;2.03;;
77362;SDS011;66428;47.322;9.432;2023-05-07T00:33:15;2.88;;;1.58;;
77362;SDS011;66428;47.322;9.432;2023-05-07T00:35:42;3.08;;;1.70;;
77362;SDS011;66428;47.322;9.432;2023-05-07T00:38:08;4.18;;;2.47;;
77362;SDS011;66428;47.322;9.432;2023-05-07T00:40:37;3.50;;;1.90;;
77362;SDS011;66428;47.322;9.432;2023-05-07T00:43:09;2.85;;;2.05;;
77362;SDS011;66428;47.322;9.432;2023-05-07T00:45:41;3.05;;;1.75;;
77362;SDS011;66428;47.322;9.432;2023-05-07T00:48:07;3.08;;;2.00;;
77362;SDS011;66428;47.322;9.432;2023-05-07T00:50:37;3.78;;;1.58;;
77362;SDS011;66428;47.322;9.432;2023-05-07T00:53:06;1.90;;;1.30;;
77362;SDS011;66428;47.322;9.432;2023-05-07T00:55:33;2.65;;;1.65;;
77362;SDS011;66428;47.322;9.432;2023-05-07T00:58:01;2.80;;;1.77;;
77362;SDS011;66428;47.322;9.432;2023-05-07T01:00:34;3.78;;;1.75;;
77362;SDS011;66428;47.322;9.432;2023-05-07T01:03:00;5.35;;;1.60;;
77362;SDS011;66428;47.322;9.432;2023-05-07T01:05:28;3.47;;;1.73;;
77362;SDS011;66428;47.322;9.432;2023-05-07T01:07:55;6.38;;;3.67;;
77362;SDS011;66428;47.322;9.432;2023-05-07T01:10:25;4.13;;;2.05;;
77362;SDS011;66428;47.322;9.432;2023-05-07T01:12:57;3.03;;;2.72;;
77362;SDS011;66428;47.322;9.432;2023-05-07T01:15:25;2.58;;;2.03;;
77362;SDS011;66428;47.322;9.432;2023-05-07T01:17:51;2.40;;;1.67;;
77362;SDS011;66428;47.322;9.432;2023-05-07T01:20:24;2.60;;;1.70;;
77362;SDS011;66428;47.322;9.432;2023-05-07T01:22:56;3.45;;;1.98;;
77362;SDS011;66428;47.322;9.432;2023-05-07T01:25:23;2.63;;;1.60;;
77362;SDS011;66428;47.322;9.432;2023-05-07T01:27:53;3.13;;;1.83;;
77362;SDS011;66428;47.322;9.432;2023-05-07T01:30:27;3.25;;;1.75;;
77362;SDS011;66428;47.322;9.432;2023-05-07T01:33:02;2.40;;;1.67;;
77362;SDS011;66428;47.322;9.432;2023-05-07T01:35:34;2.15;;;1.30;;
77362;SDS011;66428;47.322;9.432;2023-05-07T01:38:02;2.70;;;1.70;;
77362;SDS011;66428;47.322;9.432;2023-05-07T01:40:32;2.42;;;1.60;;
77362;SDS011;66428;47.322;9.432;2023-05-07T01:43:02;3.05;;;1.92;;
77362;SDS011;66428;47.322;9.432;2023-05-07T01:45:30;4.60;;;1.92;;
77362;SDS011;66428;47.322;9.432;2023-05-07T01:47:59;2.30;;;1.67;;
77362;SDS011;66428;47.322;9.432;2023-05-07T01:50:30;3.17;;;1.60;;
77362;SDS011;66428;47.322;9.432;2023-05-07T01:53:01;2.63;;;1.92;;
77362;SDS011;66428;47.322;9.432;2023-05-07T01:55:33;3.47;;;1.75;;
77362;SDS011;66428;47.322;9.432;2023-05-07T01:57:59;2.63;;;1.60;;
77362;SDS011;66428;47.322;9.432;2023-05-07T02:00:29;3.03;;;1.58;;
77362;SDS011;66428;47.322;9.432;2023-05-07T02:03:01;3.25;;;1.70;;
77362;SDS011;66428;47.322;9.432;2023-05-07T02:05:39;2.13;;;1.40;;
77362;SDS011;66428;47.322;9.432;2023-05-07T02:08:37;2.33;;;1.40;;
77362;SDS011;66428;47.322;9.432;2023-05-07T02:11:06;2.78;;;1.80;;
77362;SDS011;66428;47.322;9.432;2023-05-07T02:13:36;3.17;;;1.23;;
77362;SDS011;66428;47.322;9.432;2023-05-07T02:16:02;2.60;;;1.60;;
77362;SDS011;66428;47.322;9.432;2023-05-07T02:18:32;5.90;;;1.88;;
77362;SDS011;66428;47.322;9.432;2023-05-07T02:21:01;2.05;;;1.55;;
77362;SDS011;66428;47.322;9.432;2023-05-07T02:23:27;2.38;;;1.40;;
77362;SDS011;66428;47.322;9.432;2023-05-07T02:25:56;2.25;;;1.70;;
77362;SDS011;66428;47.322;9.432;2023-05-07T02:28:25;1.80;;;1.20;;
77362;SDS011;66428;47.322;9.432;2023-05-07T02:31:00;2.30;;;1.50;;
77362;SDS011;66428;47.322;9.432;2023-05-07T02:33:28;3.13;;;1.50;;
77362;SDS011;66428;47.322;9.432;2023-05-07T02:36:05;2.35;;;1.30;;
77362;SDS011;66428;47.322;9.432;2023-05-07T02:38:35;2.08;;;1.40;;
77362;SDS011;66428;47.322;9.432;2023-05-07T02:41:07;3.17;;;1.60;;
77362;SDS011;66428;47.322;9.432;2023-05-07T02:43:33;2.83;;;1.83;;
77362;SDS011;66428;47.322;9.432;2023-05-07T02:46:01;2.00;;;1.40;;
77362;SDS011;66428;47.322;9.432;2023-05-07T02:48:31;3.50;;;1.50;;
77362;SDS011;66428;47.322;9.432;2023-05-07T02:50:58;2.47;;;1.60;;
77362;SDS011;66428;47.322;9.432;2023-05-07T02:53:25;3.05;;;1.52;;
77362;SDS011;66428;47.322;9.432;2023-05-07T02:55:56;2.35;;;1.42;;
77362;SDS011;66428;47.322;9.432;2023-05-07T02:58:23;5.55;;;1.70;;
77362;SDS011;66428;47.322;9.432;2023-05-07T03:00:52;2.47;;;1.50;;
77362;SDS011;66428;47.322;9.432;2023-05-07T03:03:29;3.00;;;1.60;;
77362;SDS011;66428;47.322;9.432;2023-05-07T03:05:56;2.28;;;1.52;;
77362;SDS011;66428;47.322;9.432;2023-05-07T03:08:25;6.40;;;1.30;;
77362;SDS011;66428;47.322;9.432;2023-05-07T03:10:54;2.50;;;1.50;;
77362;SDS011;66428;47.322;9.432;2023-05-07T03:13:25;2.15;;;1.50;;
77362;SDS011;66428;47.322;9.432;2023-05-07T03:15:55;2.00;;;1.35;;
77362;SDS011;66428;47.322;9.432;2023-05-07T03:18:24;2.65;;;1.42;;
77362;SDS011;66428;47.322;9.432;2023-05-07T03:20:51;2.28;;;1.50;;
77362;SDS011;66428;47.322;9.432;2023-05-07T03:23:22;3.47;;;1.50;;
77362;SDS011;66428;47.322;9.432;2023-05-07T03:25:50;2.58;;;1.45;;
77362;SDS011;66428;47.322;9.432;2023-05-07T03:28:20;2.28;;;1.52;;
77362;SDS011;66428;47.322;9.432;2023-05-07T03:30:54;2.33;;;1.63;;
77362;SDS011;66428;47.322;9.432;2023-05-07T03:33:26;3.10;;;1.95;;
77362;SDS011;66428;47.322;9.432;2023-05-07T03:35:54;2.35;;;1.42;;
77362;SDS011;66428;47.322;9.432;2023-05-07T03:38:23;3.22;;;1.60;;
77362;SDS011;66428;47.322;9.432;2023-05-07T03:40:50;2.10;;;1.48;;
77362;SDS011;66428;47.322;9.432;2023-05-07T03:43:20;3.03;;;1.92;;
77362;SDS011;66428;47.322;9.432;2023-05-07T03:45:54;2.83;;;1.42;;
77362;SDS011;66428;47.322;9.432;2023-05-07T03:48:24;2.50;;;1.83;;
77362;SDS011;66428;47.322;9.432;2023-05-07T03:50:55;2.03;;;1.52;;
77362;SDS011;66428;47.322;9.432;2023-05-07T03:53:22;2.13;;;1.48;;
77362;SDS011;66428;47.322;9.432;2023-05-07T03:55:51;2.90;;;1.30;;
77362;SDS011;66428;47.322;9.432;2023-05-07T03:58:20;2.70;;;1.58;;
77362;SDS011;66428;47.322;9.432;2023-05-07T04:00:50;3.05;;;1.40;;
77362;SDS011;66428;47.322;9.432;2023-05-07T04:03:24;2.40;;;1.50;;
77362;SDS011;66428;47.322;9.432;2023-05-07T04:05:58;2.42;;;1.55;;
77362;SDS011;66428;47.322;9.432;2023-05-07T04:08:28;2.10;;;1.30;;
77362;SDS011;66428;47.322;9.432;2023-05-07T04:10:55;15.85;;;6.45;;
77362;SDS011;66428;47.322;9.432;2023-05-07T04:13:28;7.72;;;3.88;;
77362;SDS011;66428;47.322;9.432;2023-05-07T04:16:01;2.83;;;1.90;;
77362;SDS011;66428;47.322;9.432;2023-05-07T04:18:28;2.45;;;1.70;;
77362;SDS011;66428;47.322;9.432;2023-05-07T04:20:58;2.47;;;1.67;;
77362;SDS011;66428;47.322;9.432;2023-05-07T04:23:27;3.67;;;1.85;;
77362;SDS011;66428;47.322;9.432;2023-05-07T04:25:58;2.50;;;1.80;;
77362;SDS011;66428;47.322;9.432;2023-05-07T04:28:40;3.92;;;1.58;;
77362;SDS011;66428;47.322;9.432;2023-05-07T04:31:14;3.58;;;1.83;;
77362;SDS011;66428;47.322;9.432;2023-05-07T04:33:47;3.45;;;1.83;;
77362;SDS011;66428;47.322;9.432;2023-05-07T04:36:17;2.83;;;1.40;;
77362;SDS011;66428;47.322;9.432;2023-05-07T04:38:49;3.03;;;1.55;;
77362;SDS011;66428;47.322;9.432;2023-05-07T04:41:19;3.83;;;1.60;;
77362;SDS011;66428;47.322;9.432;2023-05-07T04:43:48;2.30;;;1.55;;
77362;SDS011;66428;47.322;9.432;2023-05-07T04:46:17;2.92;;;1.90;;
77362;SDS011;66428;47.322;9.432;2023-05-07T04:48:44;2.80;;;1.95;;
77362;SDS011;66428;47.322;9.432;2023-05-07T04:51:18;3.13;;;1.60;;
77362;SDS011;66428;47.322;9.432;2023-05-07T04:53:45;2.67;;;1.60;;
77362;SDS011;66428;47.322;9.432;2023-05-07T04:56:12;2.67;;;1.60;;
77362;SDS011;66428;47.322;9.432;2023-05-07T04:58:41;5.57;;;1.55;;
77362;SDS011;66428;47.322;9.432;2023-05-07T05:01:08;3.10;;;1.85;;
77362;SDS011;66428;47.322;9.432;2023-05-07T05:03:38;2.33;;;1.50;;
77362;SDS011;66428;47.322;9.432;2023-05-07T05:06:10;3.60;;;1.77;;
77362;SDS011;66428;47.322;9.432;2023-05-07T05:08:36;3.95;;;1.55;;
77362;SDS011;66428;47.322;9.432;2023-05-07T05:11:03;3.33;;;1.50;;
77362;SDS011;66428;47.322;9.432;2023-05-07T05:13:34;2.75;;;1.80;;
77362;SDS011;66428;47.322;9.432;2023-05-07T05:16:10;3.85;;;1.90;;
77362;SDS011;66428;47.322;9.432;2023-05-07T05:18:40;3.58;;;1.80;;
77362;SDS011;66428;47.322;9.432;2023-05-07T05:21:11;2.63;;;1.67;;
77362;SDS011;66428;47.322;9.432;2023-05-07T05:23:42;2.72;;;1.77;;
77362;SDS011;66428;47.322;9.432;2023-05-07T05:26:14;4.85;;;1.80;;
77362;SDS011;66428;47.322;9.432;2023-05-07T05:28:40;3.95;;;1.70;;
77362;SDS011;66428;47.322;9.432;2023-05-07T05:31:09;3.15;;;2.35;;
77362;SDS011;66428;47.322;9.432;2023-05-07T05:33:39;4.35;;;2.00;;
77362;SDS011;66428;47.322;9.432;2023-05-07T05:36:06;2.63;;;1.70;;
77362;SDS011;66428;47.322;9.432;2023-05-07T05:38:36;2.67;;;1.80;;
77362;SDS011;66428;47.322;9.432;2023-05-07T05:41:05;3.10;;;1.58;;
77362;SDS011;66428;47.322;9.432;2023-05-07T05:43:34;3.50;;;1.85;;
77362;SDS011;66428;47.322;9.432;2023-05-07T05:46:01;3.72;;;2.15;;
77362;SDS011;66428;47.322;9.432;2023-05-07T05:48:30;3.30;;;1.83;;
77362;SDS011;66428;47.322;9.432;2023-05-07T05:51:01;4.60;;;2.03;;
77362;SDS011;66428;47.322;9.432;2023-05-07T05:53:27;2.35;;;1.70;;
77362;SDS011;66428;47.322;9.432;2023-05-07T05:55:59;2.50;;;1.63;;
77362;SDS011;66428;47.322;9.432;2023-05-07T05:58:25;3.28;;;2.03;;
77362;SDS011;66428;47.322;9.432;2023-05-07T06:00:59;6.35;;;2.30;;
77362;SDS011;66428;47.322;9.432;2023-05-07T06:03:29;2.55;;;2.13;;
77362;SDS011;66428;47.322;9.432;2023-05-07T06:05:59;3.10;;;2.03;;
77362;SDS011;66428;47.322;9.432;2023-05-07T06:08:29;5.15;;;1.90;;
77362;SDS011;66428;47.322;9.432;2023-05-07T06:10:59;5.10;;;1.70;;
77362;SDS011;66428;47.322;9.432;2023-05-07T06:13:34;2.40;;;1.65;;
77362;SDS011;66428;47.322;9.432;2023-05-07T06:16:01;2.35;;;1.58;;
77362;SDS011;66428;47.322;9.432;2023-05-07T06:18:28;5.50;;;2.85;;
77362;SDS011;66428;47.322;9.432;2023-05-07T06:20:55;2.70;;;1.98;;
77362;SDS011;66428;47.322;9.432;2023-05-07T06:23:29;3.08;;;2.05;;
77362;SDS011;66428;47.322;9.432;2023-05-07T06:25:55;2.60;;;2.10;;
77362;SDS011;66428;47.322;9.432;2023-05-07T06:28:30;3.03;;;1.67;;
77362;SDS011;66428;47.322;9.432;2023-05-07T06:31:17;2.83;;;1.77;;
77362;SDS011;66428;47.322;9.432;2023-05-07T06:33:50;2.33;;;1.50;;
77362;SDS011;66428;47.322;9.432;2023-05-07T06:36:20;2.70;;;1.85;;
77362;SDS011;66428;47.322;9.432;2023-05-07T06:38:47;2.97;;;1.90;;
77362;SDS011;66428;47.322;9.432;2023-05-07T06:41:16;2.63;;;1.77;;
77362;SDS011;66428;47.322;9.432;2023-05-07T06:43:42;3.80;;;1.88;;
77362;SDS011;66428;47.322;9.432;2023-05-07T06:46:30;3.88;;;1.77;;
77362;SDS011;66428;47.322;9.432;2023-05-07T06:48:56;3.55;;;1.55;;
77362;SDS011;66428;47.322;9.432;2023-05-07T06:51:24;2.88;;;1.75;;
77362;SDS011;66428;47.322;9.432;2023-05-07T06:53:57;3.85;;;2.13;;
77362;SDS011;66428;47.322;9.432;2023-05-07T06:56:26;3.13;;;2.00;;
77362;SDS011;66428;47.322;9.432;2023-05-07T06:58:57;4.13;;;2.47;;
77362;SDS011;66428;47.322;9.432;2023-05-07T07:01:24;3.60;;;2.47;;
77362;SDS011;66428;47.322;9.432;2023-05-07T07:03:50;3.33;;;2.30;;
77362;SDS011;66428;47.322;9.432;2023-05-07T07:06:19;3.15;;;1.95;;
77362;SDS011;66428;47.322;9.432;2023-05-07T07:08:46;2.72;;;1.75;;
77362;SDS011;66428;47.322;9.432;2023-05-07T07:11:17;2.95;;;2.25;;
77362;SDS011;66428;47.322;9.432;2023-05-07T07:13:47;5.07;;;2.00;;
77362;SDS011;66428;47.322;9.432;2023-05-07T07:16:16;4.72;;;2.08;;
77362;SDS011;66428;47.322;9.432;2023-05-07T07:18:44;8.85;;;2.33;;
77362;SDS011;66428;47.322;9.432;2023-05-07T07:21:13;2.80;;;1.90;;
77362;SDS011;66428;47.322;9.432;2023-05-07T07:23:40;3.00;;;2.13;;
77362;SDS011;66428;47.322;9.432;2023-05-07T07:26:11;4.53;;;2.40;;
77362;SDS011;66428;47.322;9.432;2023-05-07T07:28:42;3.45;;;2.10;;
77362;SDS011;66428;47.322;9.432;2023-05-07T07:31:12;4.05;;;2.33;;
77362;SDS011;66428;47.322;9.432;2023-05-07T07:33:38;5.43;;;2.17;;
77362;SDS011;66428;47.322;9.432;2023-05-07T07:36:05;5.82;;;2.33;;
77362;SDS011;66428;47.322;9.432;2023-05-07T07:38:33;3.17;;;2.33;;
77362;SDS011;66428;47.322;9.432;2023-05-07T07:41:02;3.40;;;2.08;;
77362;SDS011;66428;47.322;9.432;2023-05-07T07:43:29;4.15;;;2.35;;
77362;SDS011;66428;47.322;9.432;2023-05-07T07:45:56;4.53;;;2.30;;
77362;SDS011;66428;47.322;9.432;2023-05-07T07:48:25;3.10;;;2.25;;
77362;SDS011;66428;47.322;9.432;2023-05-07T07:50:55;5.05;;;2.30;;
77362;SDS011;66428;47.322;9.432;2023-05-07T07:53:23;3.00;;;2.38;;
77362;SDS011;66428;47.322;9.432;2023-05-07T07:55:50;4.43;;;2.55;;
77362;SDS011;66428;47.322;9.432;2023-05-07T07:58:29;4.32;;;2.33;;
77362;SDS011;66428;47.322;9.432;2023-05-07T08:00:59;4.30;;;2.72;;
77362;SDS011;66428;47.322;9.432;2023-05-07T08:03:28;4.25;;;2.35;;
77362;SDS011;66428;47.322;9.432;2023-05-07T08:05:57;4.25;;;2.60;;
77362;SDS011;66428;47.322;9.432;2023-05-07T08:08:24;3.67;;;2.42;;
77362;SDS011;66428;47.322;9.432;2023-05-07T08:10:56;4.10;;;2.38;;
77362;SDS011;66428;47.322;9.432;2023-05-07T08:13:30;5.03;;;2.20;;
77362;SDS011;66428;47.322;9.432;2023-05-07T08:15:57;3.78;;;2.30;;
77362;SDS011;66428;47.322;9.432;2023-05-07T08:18:26;4.18;;;2.67;;
77362;SDS011;66428;47.322;9.432;2023-05-07T08:21:00;4.20;;;2.60;;
77362;SDS011;66428;47.322;9.432;2023-05-07T08:23:30;3.95;;;2.80;;
77362;SDS011;66428;47.322;9.432;2023-05-07T08:25:57;5.00;;;2.42;;
77362;SDS011;66428;47.322;9.432;2023-05-07T08:28:24;4.35;;;2.60;;
77362;SDS011;66428;47.322;9.432;2023-05-07T08:30:51;3.22;;;2.00;;
77362;SDS011;66428;47.322;9.432;2023-05-07T08:33:18;3.45;;;2.28;;
77362;SDS011;66428;47.322;9.432;2023-05-07T08:35:49;3.83;;;1.92;;
77362;SDS011;66428;47.322;9.432;2023-05-07T08:38:16;3.78;;;2.28;;
77362;SDS011;66428;47.322;9.432;2023-05-07T08:40:45;2.60;;;2.13;;
77362;SDS011;66428;47.322;9.432;2023-05-07T08:43:19;2.75;;;1.60;;
77362;SDS011;66428;47.322;9.432;2023-05-07T08:45:46;2.90;;;2.22;;
77362;SDS011;66428;47.322;9.432;2023-05-07T08:48:16;4.57;;;2.15;;
77362;SDS011;66428;47.322;9.432;2023-05-07T08:50:51;3.13;;;2.05;;
77362;SDS011;66428;47.322;9.432;2023-05-07T08:53:20;2.67;;;1.90;;
77362;SDS011;66428;47.322;9.432;2023-05-07T08:55:50;3.58;;;2.17;;
77362;SDS011;66428;47.322;9.432;2023-05-07T08:58:17;3.60;;;2.05;;
77362;SDS011;66428;47.322;9.432;2023-05-07T09:00:44;4.47;;;1.92;;
77362;SDS011;66428;47.322;9.432;2023-05-07T09:03:13;3.38;;;2.22;;
77362;SDS011;66428;47.322;9.432;2023-05-07T09:05:48;3.90;;;2.30;;
77362;SDS011;66428;47.322;9.432;2023-05-07T09:08:17;4.38;;;2.40;;
77362;SDS011;66428;47.322;9.432;2023-05-07T09:10:46;3.90;;;2.40;;
77362;SDS011;66428;47.322;9.432;2023-05-07T09:13:17;4.53;;;2.63;;
77362;SDS011;66428;47.322;9.432;2023-05-07T09:15:47;4.40;;;2.92;;
77362;SDS011;66428;47.322;9.432;2023-05-07T09:18:17;4.40;;;2.75;;
77362;SDS011;66428;47.322;9.432;2023-05-07T09:20:50;4.47;;;2.38;;
77362;SDS011;66428;47.322;9.432;2023-05-07T09:23:20;3.50;;;2.67;;
77362;SDS011;66428;47.322;9.432;2023-05-07T09:25:49;3.28;;;2.50;;
77362;SDS011;66428;47.322;9.432;2023-05-07T09:28:24;5.05;;;2.40;;
77362;SDS011;66428;47.322;9.432;2023-05-07T09:30:53;3.38;;;2.50;;
77362;SDS011;66428;47.322;9.432;2023-05-07T09:33:28;4.63;;;2.47;;
77362;SDS011;66428;47.322;9.432;2023-05-07T09:36:04;3.45;;;2.20;;
77362;SDS011;66428;47.322;9.432;2023-05-07T09:38:35;4.28;;;2.60;;
77362;SDS011;66428;47.322;9.432;2023-05-07T09:43:35;3.15;;;2.20;;
77362;SDS011;66428;47.322;9.432;2023-05-07T09:46:11;2.60;;;1.92;;
77362;SDS011;66428;47.322;9.432;2023-05-07T09:48:46;4.25;;;2.45;;
77362;SDS011;66428;47.322;9.432;2023-05-07T09:53:44;3.55;;;2.50;;
77362;SDS011;66428;47.322;9.432;2023-05-07T09:56:13;3.00;;;2.20;;
77362;SDS011;66428;47.322;9.432;2023-05-07T09:58:43;4.65;;;2.55;;
77362;SDS011;66428;47.322;9.432;2023-05-07T10:01:14;3.42;;;2.22;;
77362;SDS011;66428;47.322;9.432;2023-05-07T10:03:46;2.83;;;2.00;;
77362;SDS011;66428;47.322;9.432;2023-05-07T10:06:13;3.08;;;2.08;;
77362;SDS011;66428;47.322;9.432;2023-05-07T10:08:41;3.88;;;1.98;;
77362;SDS011;66428;47.322;9.432;2023-05-07T10:11:14;3.72;;;2.10;;
77362;SDS011;66428;47.322;9.432;2023-05-07T10:13:42;4.72;;;2.33;;
77362;SDS011;66428;47.322;9.432;2023-05-07T10:16:09;4.70;;;2.05;;
77362;SDS011;66428;47.322;9.432;2023-05-07T10:18:46;4.20;;;1.90;;
77362;SDS011;66428;47.322;9.432;2023-05-07T10:21:19;3.15;;;1.95;;
77362;SDS011;66428;47.322;9.432;2023-05-07T10:23:59;4.13;;;2.03;;
77362;SDS011;66428;47.322;9.432;2023-05-07T10:28:58;3.63;;;2.10;;
77362;SDS011;66428;47.322;9.432;2023-05-07T10:33:56;2.35;;;1.80;;
77362;SDS011;66428;47.322;9.432;2023-05-07T10:36:26;2.90;;;1.52;;
77362;SDS011;66428;47.322;9.432;2023-05-07T10:38:58;2.63;;;1.70;;
77362;SDS011;66428;47.322;9.432;2023-05-07T10:41:25;2.00;;;1.42;;
77362;SDS011;66428;47.322;9.432;2023-05-07T10:43:53;2.88;;;1.50;;
77362;SDS011;66428;47.322;9.432;2023-05-07T10:46:27;2.45;;;1.70;;
77362;SDS011;66428;47.322;9.432;2023-05-07T10:49:17;2.90;;;1.70;;
77362;SDS011;66428;47.322;9.432;2023-05-07T10:52:16;2.97;;;1.55;;
77362;SDS011;66428;47.322;9.432;2023-05-07T11:00:57;2.40;;;1.75;;
77362;SDS011;66428;47.322;9.432;2023-05-07T11:03:35;2.53;;;1.90;;
77362;SDS011;66428;47.322;9.432;2023-05-07T11:14:43;2.40;;;1.80;;
77362;SDS011;66428;47.322;9.432;2023-05-07T11:17:22;2.65;;;1.73;;
77362;SDS011;66428;47.322;9.432;2023-05-07T11:19:59;2.28;;;1.67;;
77362;SDS011;66428;47.322;9.432;2023-05-07T11:22:41;2.63;;;2.05;;
77362;SDS011;66428;47.322;9.432;2023-05-07T11:25:24;3.08;;;1.52;;
77362;SDS011;66428;47.322;9.432;2023-05-07T11:28:03;2.58;;;1.60;;
77362;SDS011;66428;47.322;9.432;2023-05-07T11:30:37;2.75;;;1.50;;
77362;SDS011;66428;47.322;9.432;2023-05-07T11:33:10;2.63;;;1.52;;
77362;SDS011;66428;47.322;9.432;2023-05-07T11:35:39;2.20;;;1.60;;
77362;SDS011;66428;47.322;9.432;2023-05-07T11:38:09;2.40;;;1.67;;
77362;SDS011;66428;47.322;9.432;2023-05-07T11:40:42;2.15;;;1.58;;
77362;SDS011;66428;47.322;9.432;2023-05-07T11:43:17;2.97;;;2.53;;
77362;SDS011;66428;47.322;9.432;2023-05-07T11:45:47;2.33;;;1.33;;
77362;SDS011;66428;47.322;9.432;2023-05-07T11:48:16;2.20;;;1.60;;
77362;SDS011;66428;47.322;9.432;2023-05-07T11:53:27;2.63;;;1.60;;
77362;SDS011;66428;47.322;9.432;2023-05-07T11:55:57;2.15;;;1.40;;
77362;SDS011;66428;47.322;9.432;2023-05-07T11:58:29;2.58;;;1.45;;
77362;SDS011;66428;47.322;9.432;2023-05-07T12:00:58;2.10;;;1.35;;
77362;SDS011;66428;47.322;9.432;2023-05-07T12:03:24;3.20;;;1.73;;
77362;SDS011;66428;47.322;9.432;2023-05-07T12:05:53;2.30;;;1.60;;
77362;SDS011;66428;47.322;9.432;2023-05-07T12:08:19;3.38;;;2.03;;
77362;SDS011;66428;47.322;9.432;2023-05-07T12:10:49;3.17;;;1.80;;
77362;SDS011;66428;47.322;9.432;2023-05-07T12:13:22;3.58;;;1.50;;
77362;SDS011;66428;47.322;9.432;2023-05-07T12:15:52;2.83;;;1.50;;
77362;SDS011;66428;47.322;9.432;2023-05-07T12:18:21;2.10;;;1.60;;
77362;SDS011;66428;47.322;9.432;2023-05-07T12:20:50;2.95;;;1.80;;
77362;SDS011;66428;47.322;9.432;2023-05-07T12:23:21;2.22;;;1.80;;
77362;SDS011;66428;47.322;9.432;2023-05-07T12:25:50;2.03;;;1.55;;
77362;SDS011;66428;47.322;9.432;2023-05-07T12:28:17;2.63;;;1.80;;
77362;SDS011;66428;47.322;9.432;2023-05-07T12:30:50;3.40;;;1.55;;
77362;SDS011;66428;47.322;9.432;2023-05-07T12:33:17;2.00;;;1.67;;
77362;SDS011;66428;47.322;9.432;2023-05-07T12:35:47;2.25;;;1.70;;
77362;SDS011;66428;47.322;9.432;2023-05-07T12:38:16;3.45;;;1.27;;
77362;SDS011;66428;47.322;9.432;2023-05-07T12:40:53;2.88;;;1.60;;
77362;SDS011;66428;47.322;9.432;2023-05-07T12:43:28;2.20;;;1.60;;
77362;SDS011;66428;47.322;9.432;2023-05-07T12:45:58;2.70;;;1.25;;
77362;SDS011;66428;47.322;9.432;2023-05-07T12:48:28;3.03;;;1.60;;
77362;SDS011;66428;47.322;9.432;2023-05-07T12:50:58;2.20;;;1.40;;
77362;SDS011;66428;47.322;9.432;2023-05-07T12:53:26;2.15;;;1.45;;
77362;SDS011;66428;47.322;9.432;2023-05-07T12:55:56;2.45;;;1.55;;
77362;SDS011;66428;47.322;9.432;2023-05-07T12:58:30;2.42;;;1.60;;
77362;SDS011;66428;47.322;9.432;2023-05-07T13:00:57;2.50;;;1.40;;
77362;SDS011;66428;47.322;9.432;2023-05-07T13:03:33;3.67;;;1.50;;
77362;SDS011;66428;47.322;9.432;2023-05-07T13:06:04;2.80;;;1.48;;
77362;SDS011;66428;47.322;9.432;2023-05-07T13:08:37;2.35;;;1.50;;
77362;SDS011;66428;47.322;9.432;2023-05-07T13:11:07;2.00;;;1.38;;
77362;SDS011;66428;47.322;9.432;2023-05-07T13:13:40;2.13;;;1.30;;
77362;SDS011;66428;47.322;9.432;2023-05-07T13:16:10;3.55;;;1.50;;
77362;SDS011;66428;47.322;9.432;2023-05-07T13:18:37;2.42;;;1.25;;
77362;SDS011;66428;47.322;9.432;2023-05-07T13:21:04;3.03;;;1.52;;
77362;SDS011;66428;47.322;9.432;2023-05-07T13:23:31;2.50;;;2.00;;
77362;SDS011;66428;47.322;9.432;2023-05-07T13:25:57;4.03;;;2.13;;
77362;SDS011;66428;47.322;9.432;2023-05-07T13:28:24;2.15;;;1.30;;
77362;SDS011;66428;47.322;9.432;2023-05-07T13:30:50;2.17;;;1.48;;
77362;SDS011;66428;47.322;9.432;2023-05-07T13:33:21;2.17;;;1.33;;
77362;SDS011;66428;47.322;9.432;2023-05-07T13:35:47;2.92;;;1.63;;
77362;SDS011;66428;47.322;9.432;2023-05-07T13:38:14;2.05;;;1.42;;
77362;SDS011;66428;47.322;9.432;2023-05-07T13:40:43;2.55;;;1.42;;
77362;SDS011;66428;47.322;9.432;2023-05-07T13:43:09;2.20;;;1.40;;
77362;SDS011;66428;47.322;9.432;2023-05-07T13:45:37;2.35;;;1.70;;
77362;SDS011;66428;47.322;9.432;2023-05-07T13:48:03;2.67;;;1.95;;
77362;SDS011;66428;47.322;9.432;2023-05-07T13:50:32;4.07;;;1.95;;
77362;SDS011;66428;47.322;9.432;2023-05-07T13:52:59;4.32;;;2.05;;
77362;SDS011;66428;47.322;9.432;2023-05-07T13:55:28;3.90;;;2.03;;
77362;SDS011;66428;47.322;9.432;2023-05-07T13:57:55;2.85;;;2.20;;
77362;SDS011;66428;47.322;9.432;2023-05-07T14:00:26;3.47;;;2.00;;
77362;SDS011;66428;47.322;9.432;2023-05-07T14:02:53;3.10;;;2.40;;
77362;SDS011;66428;47.322;9.432;2023-05-07T14:05:22;2.53;;;1.95;;
77362;SDS011;66428;47.322;9.432;2023-05-07T14:07:53;2.60;;;1.90;;
77362;SDS011;66428;47.322;9.432;2023-05-07T14:10:22;2.80;;;2.10;;
77362;SDS011;66428;47.322;9.432;2023-05-07T14:12:54;2.22;;;1.60;;
77362;SDS011;66428;47.322;9.432;2023-05-07T14:15:21;2.67;;;1.60;;
77362;SDS011;66428;47.322;9.432;2023-05-07T14:17:52;3.03;;;2.30;;
77362;SDS011;66428;47.322;9.432;2023-05-07T14:20:19;8.30;;;2.70;;
77362;SDS011;66428;47.322;9.432;2023-05-07T14:22:46;3.85;;;2.60;;
77362;SDS011;66428;47.322;9.432;2023-05-07T14:25:13;3.55;;;2.58;;
77362;SDS011;66428;47.322;9.432;2023-05-07T14:27:42;5.05;;;3.42;;
77362;SDS011;66428;47.322;9.432;2023-05-07T14:30:08;4.18;;;2.83;;
77362;SDS011;66428;47.322;9.432;2023-05-07T14:32:35;4.47;;;3.03;;
77362;SDS011;66428;47.322;9.432;2023-05-07T14:35:01;3.47;;;2.70;;
77362;SDS011;66428;47.322;9.432;2023-05-07T14:37:30;4.88;;;3.38;;
77362;SDS011;66428;47.322;9.432;2023-05-07T14:39:59;4.78;;;3.28;;
77362;SDS011;66428;47.322;9.432;2023-05-07T14:42:28;5.40;;;3.40;;
77362;SDS011;66428;47.322;9.432;2023-05-07T14:44:55;9.48;;;3.95;;
77362;SDS011;66428;47.322;9.432;2023-05-07T14:47:21;5.63;;;3.58;;
77362;SDS011;66428;47.322;9.432;2023-05-07T14:49:53;5.10;;;3.58;;
77362;SDS011;66428;47.322;9.432;2023-05-07T14:52:20;4.80;;;3.78;;
77362;SDS011;66428;47.322;9.432;2023-05-07T14:54:47;4.40;;;3.88;;
77362;SDS011;66428;47.322;9.432;2023-05-07T14:57:16;5.00;;;3.72;;
77362;SDS011;66428;47.322;9.432;2023-05-07T14:59:48;5.53;;;4.63;;
77362;SDS011;66428;47.322;9.432;2023-05-07T15:02:17;7.38;;;4.65;;
77362;SDS011;66428;47.322;9.432;2023-05-07T15:04:46;5.35;;;3.92;;
77362;SDS011;66428;47.322;9.432;2023-05-07T15:07:13;6.70;;;4.22;;
77362;SDS011;66428;47.322;9.432;2023-05-07T15:09:44;5.57;;;3.88;;
77362;SDS011;66428;47.322;9.432;2023-05-07T15:12:16;7.80;;;4.60;;
77362;SDS011;66428;47.322;9.432;2023-05-07T15:14:42;5.68;;;4.15;;
77362;SDS011;66428;47.322;9.432;2023-05-07T15:17:09;3.10;;;2.05;;
77362;SDS011;66428;47.322;9.432;2023-05-07T15:19:35;2.83;;;1.92;;
77362;SDS011;66428;47.322;9.432;2023-05-07T15:22:04;2.72;;;1.42;;
77362;SDS011;66428;47.322;9.432;2023-05-07T15:24:35;5.15;;;1.90;;
77362;SDS011;66428;47.322;9.432;2023-05-07T15:27:02;3.25;;;2.05;;
77362;SDS011;66428;47.322;9.432;2023-05-07T15:29:31;5.05;;;2.60;;
77362;SDS011;66428;47.322;9.432;2023-05-07T15:31:59;4.10;;;2.55;;